Time;durP1;ratioP1;P1;durP2;ratioP2;P2;SDS_P1;SDS_P2;PMS_P1;PMS_P2;Temp;Humidity;BMP_temperature;BMP_pressure;BME280_temperature;BME280_humidity;BME280_pressure;Samples;Min_cycle;Max_cycle;Signal;HPM_P1;HPM_P2
2023/08/11 06:30:20;;;;;;;3.33;2.78;;;;;;;;;;10590180;28;20047;-84
2023/08/11 07:04:23;;;;;;;4.85;2.78;;;;;;;;;;10562407;28;20032;-80
2023/08/11 07:09:24;;;;;;;3.28;2.55;;;;;;;;;;10554924;28;20032;-81
2023/08/11 07:14:25;;;;;;;5.97;2.30;;;;;;;;;;10564447;28;20397;-80
2023/08/11 07:19:29;;;;;;;2.88;2.20;;;;;;;;;;10565882;28;20096;-83
2023/08/11 07:24:30;;;;;;;3.90;2.50;;;;;;;;;;10556303;27;20028;-81
2023/08/11 07:29:31;;;;;;;5.32;2.95;;;;;;;;;;10549857;28;20107;-81
2023/08/11 07:34:32;;;;;;;5.05;2.75;;;;;;;;;;10550077;28;20118;-81
2023/08/11 07:39:33;;;;;;;4.05;2.65;;;;;;;;;;10550483;28;20091;-80
2023/08/11 07:44:34;;;;;;;7.25;2.90;;;;;;;;;;10551608;28;20472;-82
2023/08/11 07:49:35;;;;;;;5.22;3.05;;;;;;;;;;10550297;28;20457;-81
2023/08/11 07:54:36;;;;;;;5.60;2.70;;;;;;;;;;10551928;28;20075;-80
2023/08/11 07:59:37;;;;;;;3.63;2.50;;;;;;;;;;10550745;28;20058;-81
2023/08/11 08:04:38;;;;;;;6.68;3.15;;;;;;;;;;10551914;28;20070;-81
2023/08/11 08:09:39;;;;;;;5.93;3.50;;;;;;;;;;10552856;28;20134;-80
2023/08/11 08:14:41;;;;;;;6.00;3.40;;;;;;;;;;10552002;28;20028;-80
2023/08/11 08:19:42;;;;;;;5.70;3.20;;;;;;;;;;10553148;28;20055;-81
2023/08/11 08:24:43;;;;;;;5.85;3.20;;;;;;;;;;10550159;28;20020;-82
2023/08/11 08:29:44;;;;;;;5.35;2.80;;;;;;;;;;10550385;28;20094;-80
2023/08/11 08:34:45;;;;;;;4.80;2.88;;;;;;;;;;10549266;28;20069;-81
2023/08/11 08:39:49;;;;;;;5.28;3.17;;;;;;;;;;10553037;28;20020;-81
2023/08/11 08:45:33;;;;;;;4.82;2.90;;;;;;;;;;10558472;28;20123;-85
2023/08/11 08:50:34;;;;;;;6.60;2.83;;;;;;;;;;10580299;27;20012;-82
2023/08/11 08:55:49;;;;;;;5.97;2.63;;;;;;;;;;10586455;27;20104;-84
2023/08/11 09:01:14;;;;;;;5.10;2.72;;;;;;;;;;10579855;27;20020;-82
2023/08/11 09:06:35;;;;;;;6.88;3.92;;;;;;;;;;10585187;28;20016;-80
2023/08/11 09:11:38;;;;;;;7.35;3.30;;;;;;;;;;10584261;28;20095;-81
2023/08/11 09:16:39;;;;;;;5.32;2.65;;;;;;;;;;10565649;28;20073;-82
2023/08/11 09:21:42;;;;;;;4.88;2.92;;;;;;;;;;10564321;28;20474;-82
2023/08/11 09:27:06;;;;;;;5.28;3.40;;;;;;;;;;10568361;28;20032;-83
2023/08/11 09:32:08;;;;;;;6.28;4.15;;;;;;;;;;10564579;28;20040;-82
2023/08/11 09:37:45;;;;;;;5.85;3.47;;;;;;;;;;10565178;28;20422;-85
2023/08/11 09:42:47;;;;;;;6.32;3.15;;;;;;;;;;10566762;28;20372;-81
2023/08/11 09:47:49;;;;;;;6.35;3.72;;;;;;;;;;10564231;28;20067;-81
2023/08/11 09:52:50;;;;;;;6.35;3.30;;;;;;;;;;10556062;28;20024;-82
2023/08/11 09:57:52;;;;;;;4.85;3.45;;;;;;;;;;10552896;28;20113;-80
2023/08/11 10:03:00;;;;;;;5.25;3.70;;;;;;;;;;10531429;28;20039;-80
2023/08/11 10:08:05;;;;;;;3.97;2.88;;;;;;;;;;10544048;28;20035;-80
2023/08/11 10:13:08;;;;;;;4.32;3.20;;;;;;;;;;10548674;28;20035;-79
2023/08/11 10:18:09;;;;;;;7.82;4.20;;;;;;;;;;10569143;28;20032;-79
2023/08/11 10:23:13;;;;;;;5.03;2.95;;;;;;;;;;10554194;28;20039;-79
2023/08/11 10:28:15;;;;;;;4.97;3.40;;;;;;;;;;10544004;28;20107;-79
2023/08/11 10:33:16;;;;;;;4.38;3.22;;;;;;;;;;10547482;28;20177;-78
2023/08/11 10:38:23;;;;;;;7.45;5.22;;;;;;;;;;10553544;28;20122;-80
2023/08/11 10:43:28;;;;;;;4.55;4.03;;;;;;;;;;10551174;28;20020;-78
2023/08/11 10:48:29;;;;;;;4.32;2.70;;;;;;;;;;10549095;28;20028;-78
2023/08/11 10:53:31;;;;;;;3.65;2.70;;;;;;;;;;10548943;28;20031;-78
2023/08/11 10:58:33;;;;;;;6.60;3.63;;;;;;;;;;10548524;28;20031;-79
2023/08/11 11:03:38;;;;;;;3.28;2.70;;;;;;;;;;10550748;28;20173;-79
2023/08/11 11:08:40;;;;;;;3.92;3.25;;;;;;;;;;10547918;28;20031;-78
2023/08/11 11:13:41;;;;;;;3.20;2.33;;;;;;;;;;10551298;28;20048;-78
2023/08/11 11:18:43;;;;;;;4.20;2.72;;;;;;;;;;10548971;28;20115;-78
2023/08/11 11:23:50;;;;;;;4.57;3.60;;;;;;;;;;10548165;28;20082;-78
2023/08/11 11:28:52;;;;;;;5.80;2.80;;;;;;;;;;10543760;28;20390;-77
2023/08/11 11:33:54;;;;;;;6.18;3.42;;;;;;;;;;10543817;28;20020;-78
2023/08/11 11:38:56;;;;;;;5.03;3.28;;;;;;;;;;10543689;28;20054;-78
2023/08/11 11:43:58;;;;;;;3.20;2.70;;;;;;;;;;10545818;28;20030;-79
2023/08/11 11:49:01;;;;;;;4.63;3.10;;;;;;;;;;10545070;28;20028;-78
2023/08/11 11:54:03;;;;;;;6.40;5.00;;;;;;;;;;10544013;28;20060;-79
2023/08/11 11:59:05;;;;;;;5.55;3.08;;;;;;;;;;10543884;28;20382;-77
2023/08/11 12:04:06;;;;;;;4.38;3.90;;;;;;;;;;10547673;28;20059;-79
2023/08/11 12:09:11;;;;;;;4.47;2.53;;;;;;;;;;10543441;28;20032;-78
2023/08/11 12:14:13;;;;;;;3.95;3.20;;;;;;;;;;10542974;28;20028;-78
2023/08/11 12:19:16;;;;;;;4.00;3.30;;;;;;;;;;10543579;28;20065;-79
2023/08/11 12:24:17;;;;;;;6.55;3.25;;;;;;;;;;10548555;28;20051;-79
2023/08/11 12:29:18;;;;;;;4.13;2.80;;;;;;;;;;10546528;28;20115;-80
2023/08/11 12:34:19;;;;;;;4.65;3.20;;;;;;;;;;10548115;28;20058;-79
2023/08/11 12:39:20;;;;;;;5.65;4.20;;;;;;;;;;10546513;28;20088;-78
2023/08/11 12:44:21;;;;;;;4.20;2.83;;;;;;;;;;10546571;28;20078;-79
2023/08/11 12:49:22;;;;;;;3.97;3.05;;;;;;;;;;10543569;28;20308;-78
2023/08/11 12:54:23;;;;;;;5.30;4.53;;;;;;;;;;10546262;28;20043;-80
2023/08/11 12:59:25;;;;;;;5.60;2.97;;;;;;;;;;10548374;28;20154;-81
2023/08/11 13:04:27;;;;;;;6.20;3.50;;;;;;;;;;10547401;28;20022;-81
2023/08/11 13:09:28;;;;;;;3.53;2.95;;;;;;;;;;10545735;28;20552;-81
2023/08/11 13:14:29;;;;;;;5.50;3.22;;;;;;;;;;10552421;28;20034;-83
2023/08/11 13:19:34;;;;;;;4.32;3.22;;;;;;;;;;10546753;28;20304;-83
2023/08/11 13:24:35;;;;;;;5.30;3.35;;;;;;;;;;10546472;28;20031;-80
2023/08/11 13:29:55;;;;;;;4.90;4.30;;;;;;;;;;10555986;28;20031;-80
2023/08/11 13:35:01;;;;;;;5.90;3.90;;;;;;;;;;10558421;28;20028;-81
2023/08/11 13:40:05;;;;;;;4.40;3.10;;;;;;;;;;10549991;28;20484;-81
2023/08/11 13:45:12;;;;;;;7.72;5.32;;;;;;;;;;10546287;28;20431;-81
2023/08/11 13:50:15;;;;;;;4.65;3.33;;;;;;;;;;10546096;28;20024;-81
2023/08/11 13:55:27;;;;;;;4.57;3.78;;;;;;;;;;10546490;28;20020;-80
2023/08/11 14:00:32;;;;;;;6.18;3.90;;;;;;;;;;10550122;28;20127;-82
2023/08/11 14:05:37;;;;;;;7.32;4.13;;;;;;;;;;10533787;28;20073;-84
2023/08/11 14:10:42;;;;;;;6.28;3.45;;;;;;;;;;10560580;28;20363;-82
2023/08/11 14:15:45;;;;;;;4.43;3.10;;;;;;;;;;10572026;28;20035;-81
2023/08/11 14:20:47;;;;;;;4.10;3.35;;;;;;;;;;10571378;28;20088;-82
2023/08/11 14:26:03;;;;;;;6.18;3.35;;;;;;;;;;10570479;28;20112;-82
2023/08/11 14:31:11;;;;;;;5.78;3.53;;;;;;;;;;10564863;28;20020;-80
2023/08/11 14:41:51;;;;;;;5.22;2.95;;;;;;;;;;10543938;28;20024;-81
2023/08/11 14:46:53;;;;;;;4.72;3.35;;;;;;;;;;10551298;28;20020;-78
2023/08/11 14:51:54;;;;;;;5.28;3.80;;;;;;;;;;10554293;27;20024;-80
2023/08/11 14:57:00;;;;;;;4.03;3.20;;;;;;;;;;10554167;28;20205;-81
2023/08/11 15:02:04;;;;;;;4.03;3.17;;;;;;;;;;10551251;28;20033;-81
2023/08/11 15:07:26;;;;;;;4.63;3.08;;;;;;;;;;10551381;28;20028;-81
2023/08/11 15:12:53;;;;;;;4.40;2.85;;;;;;;;;;10549518;28;20025;-82
2023/08/11 15:17:55;;;;;;;5.28;3.63;;;;;;;;;;10550294;28;20066;-81
2023/08/11 15:23:00;;;;;;;8.10;3.58;;;;;;;;;;10550835;28;20031;-82
2023/08/11 15:28:07;;;;;;;4.65;3.13;;;;;;;;;;10552606;28;20023;-81
2023/08/11 15:33:12;;;;;;;7.25;6.32;;;;;;;;;;10553250;28;20553;-82
2023/08/11 15:38:32;;;;;;;6.22;3.50;;;;;;;;;;10550851;28;20036;-82
2023/08/11 15:43:35;;;;;;;4.93;4.20;;;;;;;;;;10553026;28;20043;-81
2023/08/11 15:48:36;;;;;;;6.18;3.78;;;;;;;;;;10549674;28;20028;-81
2023/08/11 15:53:40;;;;;;;8.43;5.78;;;;;;;;;;10549996;28;20136;-82
2023/08/11 15:58:43;;;;;;;3.95;2.92;;;;;;;;;;10548428;28;20024;-81
2023/08/11 16:03:44;;;;;;;6.18;4.22;;;;;;;;;;10560240;27;20481;-81
2023/08/11 16:08:46;;;;;;;7.18;2.85;;;;;;;;;;10547657;28;20040;-82
2023/08/11 16:13:47;;;;;;;4.85;3.33;;;;;;;;;;10549969;28;20104;-82
2023/08/11 16:18:50;;;;;;;6.43;3.50;;;;;;;;;;10548621;28;20032;-79
2023/08/11 16:23:53;;;;;;;4.55;3.13;;;;;;;;;;10547705;28;20023;-83
2023/08/11 17:49:04;;;;;;;5.78;2.90;;;;;;;;;;10421270;28;20061;-84
2023/08/11 18:51:51;;;;;;;9.68;6.55;;;;;;;;;;10553533;28;20028;-83
